createdAt,value
2022-11-16T00:00:02.811Z,100075.53
2022-11-16T00:02:31.992Z,100064.13
2022-11-16T00:04:58.498Z,100073.19
2022-11-16T00:07:24.980Z,100072.09
2022-11-16T00:09:51.557Z,100059.56
2022-11-16T00:12:18.086Z,100064.91
2022-11-16T00:14:44.533Z,100065.97
2022-11-16T00:17:11.062Z,100067.56
2022-11-16T00:19:37.867Z,100065.69
2022-11-16T00:22:04.548Z,100068.34
2022-11-16T00:24:31.104Z,100073.66
2022-11-16T00:26:57.710Z,100074.44
2022-11-16T00:29:25.754Z,100071.78
2022-11-16T00:31:53.889Z,100072.88
2022-11-16T00:34:21.561Z,100061.13
2022-11-16T00:36:48.651Z,100065.38
2022-11-16T00:39:16.611Z,100058.47
2022-11-16T00:41:44.753Z,100066.94
2022-11-16T00:44:11.575Z,100065.38
2022-11-16T00:46:38.311Z,100060.84
2022-11-16T00:49:05.601Z,100052.53
2022-11-16T00:51:33.121Z,100056.59
2022-11-16T00:53:59.846Z,100058.94
2022-11-16T00:56:26.300Z,100046.13
2022-11-16T00:58:52.947Z,100051.75
2022-11-16T01:01:19.869Z,100045.50
2022-11-16T01:03:47.757Z,100045.34
2022-11-16T01:06:15.634Z,100037.06
2022-11-16T01:08:42.566Z,100047.22
2022-11-16T01:11:31.493Z,100043.47
2022-11-16T01:13:57.957Z,100052.22
2022-11-16T01:16:24.800Z,100041.91
2022-11-16T01:18:53.499Z,100036.25
2022-11-16T01:21:20.916Z,100037.84
2022-11-16T01:23:47.657Z,100041.28
2022-11-16T01:26:14.243Z,100042.38
2022-11-16T01:28:40.750Z,100045.50
2022-11-16T01:31:08.988Z,100035.66
2022-11-16T01:33:36.794Z,100028.75
2022-11-16T01:36:08.312Z,100025.00
2022-11-16T01:38:35.065Z,100036.41
2022-11-16T01:41:01.827Z,100026.88
2022-11-16T01:43:28.401Z,100028.75
2022-11-16T01:45:54.992Z,100029.22
2022-11-16T01:48:27.635Z,100029.53
2022-11-16T01:50:56.302Z,100027.66
2022-11-16T01:53:24.728Z,100034.06
2022-11-16T01:55:52.114Z,100029.22
2022-11-16T01:58:23.223Z,100032.69
2022-11-16T02:00:49.957Z,100029.69
2022-11-16T02:03:21.000Z,100021.72
2022-11-16T02:06:12.309Z,100022.50
2022-11-16T02:09:11.521Z,100018.44
2022-11-16T02:12:15.072Z,100012.63
2022-11-16T02:14:53.239Z,100006.69
2022-11-16T02:17:33.496Z,100002.78
2022-11-16T02:20:29.796Z,100005.75
2022-11-16T02:23:11.324Z,100001.69
2022-11-16T02:26:03.260Z,100002.47
2022-11-16T02:28:54.420Z,99992.91
2022-11-16T02:31:27.330Z,99996.03
2022-11-16T02:33:56.879Z,100004.66
2022-11-16T02:36:25.692Z,100002.47
2022-11-16T02:39:01.633Z,99999.34
2022-11-16T02:41:34.083Z,99999.81
2022-11-16T02:44:06.234Z,100004.03
2022-11-16T02:46:38.187Z,99996.03
2022-11-16T02:49:11.293Z,100001.38
2022-11-16T02:51:40.025Z,99999.81
2022-11-16T02:54:14.677Z,99989.63
2022-11-16T02:57:02.950Z,99990.72
2022-11-16T02:59:36.367Z,99986.19
2022-11-16T03:02:18.088Z,99994.97
2022-11-16T03:04:48.921Z,100001.06
2022-11-16T03:07:20.390Z,99997.91
2022-11-16T03:09:49.648Z,100001.06
2022-11-16T03:12:22.109Z,99998.41
2022-11-16T03:14:58.904Z,99994.19
2022-11-16T03:17:37.907Z,100007.97
2022-11-16T03:20:11.858Z,100006.38
2022-11-16T03:22:48.601Z,100005.59
2022-11-16T03:25:19.683Z,100009.34
2022-11-16T03:27:55.027Z,100010.94
2022-11-16T03:30:24.324Z,100013.88
2022-11-16T03:33:01.567Z,100007.50
2022-11-16T03:35:35.242Z,100003.25
2022-11-16T03:38:05.408Z,100002.16
2022-11-16T03:40:34.474Z,100005.75
2022-11-16T03:43:03.188Z,100011.88
2022-11-16T03:45:31.169Z,100017.97
2022-11-16T03:47:57.630Z,100014.81
2022-11-16T03:50:24.301Z,100014.81
2022-11-16T03:52:50.760Z,100018.56
2022-11-16T03:55:17.542Z,100012.16
2022-11-16T03:57:44.014Z,100015.13
2022-11-16T04:00:11.455Z,100016.25
2022-11-16T04:02:38.194Z,100025.00
2022-11-16T04:05:23.461Z,100021.56
2022-11-16T04:08:18.799Z,100026.41
2022-11-16T04:11:04.167Z,100025.94
2022-11-16T04:13:51.646Z,100034.69
2022-11-16T04:16:36.811Z,100028.91
2022-11-16T04:19:21.971Z,100027.66
2022-11-16T04:22:12.650Z,100029.53
2022-11-16T04:24:41.094Z,100027.47
2022-11-16T04:27:29.525Z,100017.94
2022-11-16T04:29:58.762Z,100031.25
2022-11-16T04:32:43.864Z,100031.84
2022-11-16T04:35:29.049Z,100027.63
2022-11-16T04:37:59.014Z,100037.78
2022-11-16T04:40:30.369Z,100040.75
2022-11-16T04:42:59.303Z,100041.84
2022-11-16T04:45:46.089Z,100045.91
2022-11-16T04:48:15.018Z,100036.97
2022-11-16T04:50:41.963Z,100048.38
2022-11-16T04:53:09.195Z,100040.41
2022-11-16T04:55:36.304Z,100041.81
2022-11-16T04:58:03.275Z,100038.66
2022-11-16T05:00:30.339Z,100054.16
2022-11-16T05:03:01.207Z,100047.28
2022-11-16T05:05:28.819Z,100049.13
2022-11-16T05:07:55.672Z,100054.78
2022-11-16T05:10:22.227Z,100053.97
2022-11-16T05:12:48.709Z,100052.72
2022-11-16T05:15:17.592Z,100056.78
2022-11-16T05:17:44.295Z,100060.53
2022-11-16T05:20:29.937Z,100065.38
2022-11-16T05:22:58.138Z,100072.88
2022-11-16T05:25:24.716Z,100069.75
2022-11-16T05:27:51.480Z,100067.38
2022-11-16T05:30:18.549Z,100066.91
2022-11-16T05:32:46.110Z,100067.19
2022-11-16T05:35:13.670Z,100070.16
2022-11-16T05:37:40.188Z,100076.88
2022-11-16T05:40:08.716Z,100076.88
2022-11-16T05:42:35.223Z,100071.38
2022-11-16T05:45:01.715Z,100075.44
2022-11-16T05:47:28.241Z,100084.50
2022-11-16T05:49:54.716Z,100086.34
2022-11-16T05:52:21.244Z,100086.19
2022-11-16T05:54:47.740Z,100092.09
2022-11-16T05:57:15.382Z,100090.56
2022-11-16T05:59:42.636Z,100090.38
2022-11-16T06:02:09.280Z,100095.69
2022-11-16T06:04:35.921Z,100096.47
2022-11-16T06:07:02.477Z,100089.88
2022-11-16T06:09:29.115Z,100089.88
2022-11-16T06:11:55.711Z,100088.91
2022-11-16T06:14:22.227Z,100087.03
2022-11-16T06:16:48.781Z,100096.88
2022-11-16T06:19:15.441Z,100091.09
2022-11-16T06:21:42.098Z,100094.84
2022-11-16T06:24:09.654Z,100088.72
2022-11-16T06:26:37.268Z,100084.22
2022-11-16T06:29:04.202Z,100088.72
2022-11-16T06:31:31.179Z,100082.94
2022-11-16T06:33:57.702Z,100088.25
2022-11-16T06:36:24.250Z,100091.50
2022-11-16T06:38:51.099Z,100092.88
2022-11-16T06:41:17.698Z,100092.41
2022-11-16T06:43:44.443Z,100105.97
2022-11-16T06:46:11.303Z,100108.94
2022-11-16T06:48:37.998Z,100106.56
2022-11-16T06:51:05.589Z,100114.84
2022-11-16T06:53:32.047Z,100115.94
2022-11-16T06:56:03.764Z,100114.38
2022-11-16T06:58:32.147Z,100122.16
2022-11-16T07:01:06.078Z,100125.41
2022-11-16T07:03:32.693Z,100120.50
2022-11-16T07:05:59.348Z,100122.38
2022-11-16T07:08:26.011Z,100118.75
2022-11-16T07:10:52.530Z,100125.72
2022-11-16T07:13:19.039Z,100125.53
2022-11-16T07:15:45.469Z,100126.94
2022-11-16T07:18:12.062Z,100132.84
2022-11-16T07:20:38.966Z,100131.59
2022-11-16T07:23:07.093Z,100137.19
2022-11-16T07:25:36.676Z,100135.09
2022-11-16T07:28:04.804Z,100146.34
2022-11-16T07:30:31.429Z,100149.28
2022-11-16T07:32:59.176Z,100146.91
2022-11-16T07:35:25.956Z,100158.34
2022-11-16T07:37:52.517Z,100164.44
2022-11-16T07:40:19.577Z,100168.34
2022-11-16T07:42:46.451Z,100163.25
2022-11-16T07:45:13.080Z,100154.66
2022-11-16T07:47:39.644Z,100172.38
2022-11-16T07:50:06.828Z,100168.84
2022-11-16T07:52:33.359Z,100173.75
2022-11-16T07:55:01.865Z,100176.59
2022-11-16T07:57:28.723Z,100186.03
2022-11-16T07:59:55.133Z,100189.97
2022-11-16T08:02:21.562Z,100195.16
2022-11-16T08:04:48.061Z,100192.19
2022-11-16T08:07:16.551Z,100193.19
2022-11-16T08:09:43.667Z,100204.78
2022-11-16T08:12:10.250Z,100210.31
2022-11-16T08:14:36.787Z,100203.81
2022-11-16T08:17:05.104Z,100209.63
2022-11-16T08:19:31.734Z,100208.22
2022-11-16T08:21:58.288Z,100207.31
2022-11-16T08:24:25.338Z,100214.22
2022-11-16T08:26:51.968Z,100219.72
2022-11-16T08:29:18.624Z,100223.34
2022-11-16T08:31:45.984Z,100211.31
2022-11-16T08:34:12.625Z,100210.44
2022-11-16T08:36:39.298Z,100209.03
2022-11-16T08:39:05.773Z,100214.34
2022-11-16T08:41:32.671Z,100213.09
2022-11-16T08:44:01.273Z,100210.31
2022-11-16T08:46:28.149Z,100220.34
2022-11-16T08:48:57.105Z,100222.88
2022-11-16T08:51:24.848Z,100214.91
2022-11-16T08:53:56.497Z,100226.78
2022-11-16T08:56:23.974Z,100227.19
2022-11-16T08:58:58.127Z,100221.84
2022-11-16T09:01:28.202Z,100230.97
2022-11-16T09:03:55.378Z,100227.72
2022-11-16T09:06:24.291Z,100218.97
2022-11-16T09:08:51.793Z,100225.41
2022-11-16T09:11:21.843Z,100223.13
2022-11-16T09:13:50.735Z,100228.28
2022-11-16T09:16:20.855Z,100222.53
2022-11-16T09:18:49.588Z,100225.28
2022-11-16T09:21:20.222Z,100220.28
2022-11-16T09:23:48.378Z,100228.75
2022-11-16T09:26:15.847Z,100226.72
2022-11-16T09:28:42.433Z,100231.59
2022-11-16T09:31:10.509Z,100238.19
2022-11-16T09:33:37.892Z,100238.47
2022-11-16T09:36:08.139Z,100236.78
2022-11-16T09:38:55.756Z,100241.97
2022-11-16T09:41:52.750Z,100241.06
2022-11-16T09:44:47.367Z,100250.03
2022-11-16T09:47:24.038Z,100248.97
2022-11-16T09:50:02.773Z,100250.03
2022-11-16T09:52:46.637Z,100245.47
2022-11-16T09:55:43.398Z,100241.59
2022-11-16T09:58:17.840Z,100244.25
2022-11-16T10:00:50.274Z,100249.75
2022-11-16T10:03:17.079Z,100247.41
2022-11-16T10:05:46.413Z,100243.97
2022-11-16T10:08:31.900Z,100247.50
2022-11-16T10:11:22.099Z,100244.66
2022-11-16T10:14:22.492Z,100247.66
2022-11-16T10:17:07.034Z,100234.38
2022-11-16T10:19:36.382Z,100238.28
2022-11-16T10:22:21.371Z,100237.63
2022-11-16T10:24:53.628Z,100237.03
2022-11-16T10:27:27.588Z,100237.34
2022-11-16T10:29:57.005Z,100238.75
2022-11-16T10:32:39.038Z,100242.38
2022-11-16T10:35:12.725Z,100242.22
2022-11-16T10:37:50.595Z,100235.16
2022-11-16T10:40:36.291Z,100241.13
2022-11-16T10:43:13.656Z,100235.81
2022-11-16T10:45:50.756Z,100229.69
2022-11-16T10:48:22.503Z,100235.97
2022-11-16T10:50:53.140Z,100236.94
2022-11-16T10:53:36.354Z,100243.81
2022-11-16T10:56:22.280Z,100237.06
2022-11-16T10:58:48.754Z,100244.28
2022-11-16T11:01:28.457Z,100242.41
2022-11-16T11:03:55.506Z,100237.69
2022-11-16T11:06:26.722Z,100237.41
2022-11-16T11:08:53.465Z,100238.50
2022-11-16T11:11:42.716Z,100242.88
2022-11-16T11:14:12.139Z,100242.41
2022-11-16T11:16:41.522Z,100241.31
2022-11-16T11:19:19.651Z,100239.09
2022-11-16T11:21:47.586Z,100237.38
2022-11-16T11:24:43.413Z,100232.81
2022-11-16T11:27:03.733Z,100229.53
2022-11-16T11:29:42.168Z,100221.72
2022-11-16T11:32:22.383Z,100225.94
2022-11-16T11:34:53.812Z,100223.72
2022-11-16T11:37:29.164Z,100217.63
2022-11-16T11:40:07.856Z,100208.34
2022-11-16T11:42:51.145Z,100209.75
2022-11-16T11:45:19.871Z,100204.25
2022-11-16T11:47:59.985Z,100198.75
2022-11-16T11:50:43.273Z,100198.16
2022-11-16T11:53:47.404Z,100197.81
2022-11-16T11:56:15.478Z,100196.25
2022-11-16T11:58:43.153Z,100190.28
2022-11-16T12:01:40.546Z,100193.88
2022-11-16T12:04:28.812Z,100198.13
2022-11-16T12:07:32.857Z,100203.63
2022-11-16T12:10:20.734Z,100195.78
2022-11-16T12:13:10.787Z,100197.97
2022-11-16T12:15:57.725Z,100200.97
2022-11-16T12:18:53.666Z,100201.25
2022-11-16T12:21:30.011Z,100199.97
2022-11-16T12:24:02.260Z,100204.22
2022-11-16T12:26:50.331Z,100201.72
2022-11-16T12:29:19.697Z,100190.53
2022-11-16T12:32:14.395Z,100202.59
2022-11-16T12:34:48.338Z,100202.47
2022-11-16T12:37:39.572Z,100201.53
2022-11-16T12:40:37.546Z,100199.13
2022-11-16T12:43:13.251Z,100190.69
2022-11-16T12:45:51.535Z,100187.09
2022-11-16T12:48:36.724Z,100172.94
2022-11-16T12:51:18.840Z,100178.56
2022-11-16T12:53:54.400Z,100171.38
2022-11-16T12:56:37.215Z,100161.63
2022-11-16T12:59:34.690Z,100168.19
2022-11-16T13:02:08.515Z,100163.66
2022-11-16T13:04:43.625Z,100158.03
2022-11-16T13:07:33.416Z,100155.63
2022-11-16T13:10:13.649Z,100156.41
2022-11-16T13:12:43.889Z,100162.41
2022-11-16T13:15:19.327Z,100160.81
2022-11-16T13:17:55.258Z,100153.59
2022-11-16T13:20:33.506Z,100158.00
2022-11-16T13:23:42.024Z,100147.47
2022-11-16T13:26:18.168Z,100139.78
2022-11-16T13:29:07.358Z,100144.34
2022-11-16T13:31:39.448Z,100140.44
2022-11-16T13:34:14.410Z,100145.00
2022-11-16T13:36:45.400Z,100142.63
2022-11-16T13:39:21.513Z,100154.56
2022-11-16T13:41:49.111Z,100154.75
2022-11-16T13:44:20.415Z,100156.28
2022-11-16T13:46:56.797Z,100156.16
2022-11-16T13:49:29.439Z,100152.22
2022-11-16T13:52:16.872Z,100151.47
2022-11-16T13:54:53.071Z,100143.00
2022-11-16T13:57:26.724Z,100138.91
2022-11-16T14:00:10.466Z,100136.41
2022-11-16T14:02:42.884Z,100127.94
2022-11-16T14:05:12.481Z,100126.81
2022-11-16T14:07:45.356Z,100127.63
2022-11-16T14:10:32.458Z,100130.09
2022-11-16T14:13:04.520Z,100132.16
2022-11-16T14:15:36.091Z,100124.44
2022-11-16T14:18:32.375Z,100119.56
2022-11-16T14:21:10.708Z,100112.03
2022-11-16T14:24:05.598Z,100110.78
2022-11-16T14:27:03.202Z,100112.19
2022-11-16T14:30:08.364Z,100112.84
2022-11-16T14:32:43.396Z,100107.81
2022-11-16T14:35:27.105Z,100110.69
2022-11-16T14:38:06.316Z,100104.41
2022-11-16T14:40:42.992Z,100114.63
2022-11-16T14:43:17.997Z,100110.06
2022-11-16T14:45:52.020Z,100095.94
2022-11-16T14:48:21.648Z,100098.28
2022-11-16T14:51:08.381Z,100085.09
2022-11-16T14:53:39.400Z,100091.53
2022-11-16T14:56:08.841Z,100086.50
2022-11-16T14:58:36.189Z,100087.59
2022-11-16T15:01:06.232Z,100088.41
2022-11-16T15:03:41.734Z,100079.13
2022-11-16T15:06:08.728Z,100077.13
2022-11-16T15:08:49.722Z,100072.88
2022-11-16T15:11:25.410Z,100076.97
2022-11-16T15:13:52.321Z,100082.16
2022-11-16T15:16:20.312Z,100080.44
2022-11-16T15:19:12.535Z,100062.41
2022-11-16T15:21:38.984Z,100059.59
2022-11-16T15:24:29.227Z,100061.81
2022-11-16T15:26:52.700Z,100058.66
2022-11-16T15:29:21.413Z,100053.97
2022-11-16T15:31:49.166Z,100051.63
2022-11-16T15:34:18.167Z,100047.56
2022-11-16T15:36:46.007Z,100044.75
2022-11-16T15:39:16.445Z,100043.50
2022-11-16T15:41:43.578Z,100047.91
2022-11-16T15:44:16.146Z,100040.09
2022-11-16T15:46:47.371Z,100035.69
2022-11-16T15:49:27.305Z,100034.13
2022-11-16T15:51:54.250Z,100023.78
2022-11-16T15:54:51.934Z,100016.44
2022-11-16T15:57:20.424Z,100006.22
2022-11-16T15:59:56.369Z,100005.75
2022-11-16T16:02:27.544Z,100004.81
2022-11-16T16:04:54.677Z,100005.47
2022-11-16T16:07:43.040Z,100002.19
2022-11-16T16:10:24.650Z,99986.84
2022-11-16T16:12:58.563Z,99972.41
2022-11-16T16:15:34.022Z,99990.91
2022-11-16T16:18:02.388Z,100001.91
2022-11-16T16:20:31.996Z,100002.22
2022-11-16T16:23:16.472Z,100008.63
2022-11-16T16:25:49.064Z,100003.63
2022-11-16T16:28:16.867Z,99999.38
2022-11-16T16:30:43.565Z,99995.44
2022-11-16T16:33:19.450Z,99993.41
2022-11-16T16:35:49.700Z,99992.47
2022-11-16T16:38:16.474Z,99980.88
2022-11-16T16:40:42.981Z,99972.44
2022-11-16T16:43:09.633Z,99977.28
2022-11-16T16:45:38.990Z,99980.09
2022-11-16T16:48:06.443Z,99978.84
2022-11-16T16:50:32.947Z,99972.75
2022-11-16T16:52:59.707Z,99971.16
2022-11-16T16:55:26.427Z,99977.75
2022-11-16T16:57:56.551Z,99980.72
2022-11-16T17:00:23.716Z,99965.84
2022-11-16T17:02:50.748Z,99963.78
2022-11-16T17:05:17.402Z,99967.41
2022-11-16T17:07:43.948Z,99957.09
2022-11-16T17:10:11.022Z,99952.06
2022-11-16T17:12:37.558Z,99950.81
2022-11-16T17:15:04.286Z,99950.34
2022-11-16T17:17:31.731Z,99958.63
2022-11-16T17:19:58.577Z,99950.34
2022-11-16T17:22:25.426Z,99944.22
2022-11-16T17:24:51.971Z,99949.41
2022-11-16T17:27:18.664Z,99945.63
2022-11-16T17:29:45.116Z,99950.78
2022-11-16T17:32:11.797Z,99942.66
2022-11-16T17:34:39.986Z,99951.25
2022-11-16T17:37:06.747Z,99947.03
2022-11-16T17:39:33.305Z,99946.25
2022-11-16T17:41:59.861Z,99942.34
2022-11-16T17:44:26.847Z,99948.75
2022-11-16T17:46:53.303Z,99941.38
2022-11-16T17:49:20.061Z,99937.94
2022-11-16T17:51:46.477Z,99929.19
2022-11-16T17:54:13.056Z,99927.47
2022-11-16T17:56:39.587Z,99926.53
2022-11-16T17:59:06.375Z,99928.38
2022-11-16T18:01:33.418Z,99927.59
2022-11-16T18:04:01.204Z,99919.16
2022-11-16T18:06:28.224Z,99928.25
2022-11-16T18:08:54.957Z,99921.34
2022-11-16T18:11:24.075Z,99916.31
2022-11-16T18:13:59.515Z,99927.44
2022-11-16T18:16:28.737Z,99922.59
2022-11-16T18:19:03.135Z,99920.72
2022-11-16T18:21:29.999Z,99914.31
2022-11-16T18:23:58.930Z,99911.63
2022-11-16T18:26:25.604Z,99911.34
2022-11-16T18:28:52.875Z,99913.38
2022-11-16T18:31:21.932Z,99914.94
2022-11-16T18:33:51.941Z,99915.09
2022-11-16T18:36:20.010Z,99918.22
2022-11-16T18:38:46.937Z,99919.31
2022-11-16T18:41:13.509Z,99914.00
2022-11-16T18:43:39.895Z,99910.69
2022-11-16T18:46:06.742Z,99906.97
2022-11-16T18:48:33.593Z,99908.50
2022-11-16T18:51:01.711Z,99895.53
2022-11-16T18:53:29.731Z,99895.53
2022-11-16T18:55:58.052Z,99889.09
2022-11-16T19:01:14.839Z,99885.97
2022-11-16T19:03:41.650Z,99878.78
2022-11-16T19:06:09.781Z,99871.59
2022-11-16T19:08:38.052Z,99877.69
2022-11-16T19:11:13.612Z,99872.38
2022-11-16T19:13:42.108Z,99865.94
2022-11-16T19:16:11.583Z,99860.31
2022-11-16T19:18:38.930Z,99858.13
2022-11-16T19:21:09.965Z,99845.91
2022-11-16T19:23:42.822Z,99831.34
2022-11-16T19:26:10.356Z,99826.81
2022-11-16T19:28:38.364Z,99822.28
2022-11-16T19:31:15.725Z,99811.31
2022-11-16T19:33:43.018Z,99805.34
2022-11-16T19:36:12.535Z,99801.16
2022-11-16T19:38:39.537Z,99805.66
2022-11-16T19:41:07.330Z,99797.38
2022-11-16T19:43:34.749Z,99792.50
2022-11-16T19:46:10.475Z,99791.28
2022-11-16T19:48:37.698Z,99786.72
2022-11-16T19:51:09.166Z,99780.31
2022-11-16T19:53:36.429Z,99775.00
2022-11-16T19:56:04.234Z,99770.91
2022-11-16T19:58:32.016Z,99760.28
2022-11-16T20:01:07.042Z,99751.03
2022-11-16T20:03:34.702Z,99753.38
2022-11-16T20:06:07.118Z,99754.63
2022-11-16T20:08:33.802Z,99747.59
2022-11-16T20:11:00.452Z,99733.19
2022-11-16T20:13:27.060Z,99730.06
2022-11-16T20:15:53.573Z,99730.38
2022-11-16T20:18:20.129Z,99719.72
2022-11-16T20:20:46.672Z,99712.84
2022-11-16T20:23:15.668Z,99710.19
2022-11-16T20:25:42.185Z,99715.84
2022-11-16T20:28:09.554Z,99709.72
2022-11-16T20:30:38.093Z,99714.25
2022-11-16T20:33:04.562Z,99710.97
2022-11-16T20:35:31.085Z,99708.00
2022-11-16T20:37:57.687Z,99706.88
2022-11-16T20:40:24.956Z,99708.47
2022-11-16T20:42:51.454Z,99692.97
2022-11-16T20:45:17.980Z,99695.28
2022-11-16T20:47:44.552Z,99692.63
2022-11-16T20:50:11.078Z,99683.41
2022-11-16T20:52:42.433Z,99673.53
2022-11-16T20:55:10.194Z,99671.22
2022-11-16T20:57:37.277Z,99668.66
2022-11-16T21:00:05.083Z,99659.28
2022-11-16T21:02:31.655Z,99661.50
2022-11-16T21:05:00.484Z,99664.47
2022-11-16T21:07:27.339Z,99658.22
2022-11-16T21:10:12.205Z,99657.28
2022-11-16T21:12:57.158Z,99644.47
2022-11-16T21:15:23.602Z,99638.84
2022-11-16T21:17:50.100Z,99638.56
2022-11-16T21:20:32.256Z,99609.81
2022-11-16T21:22:58.748Z,99611.38
2022-11-16T21:25:25.277Z,99609.22
2022-11-16T21:27:51.812Z,99604.69
2022-11-16T21:30:19.880Z,99608.31
2022-11-16T21:32:46.409Z,99589.84
2022-11-16T21:35:13.109Z,99586.56
2022-11-16T21:37:39.695Z,99586.44
2022-11-16T21:40:06.668Z,99574.13
2022-11-16T21:42:33.244Z,99573.19
2022-11-16T21:44:59.731Z,99566.94
2022-11-16T21:47:26.357Z,99566.47
2022-11-16T21:50:29.669Z,99547.72
2022-11-16T21:52:39.329Z,99538.03
2022-11-16T21:55:06.152Z,99538.91
2022-11-16T21:57:32.670Z,99539.25
2022-11-16T22:00:00.987Z,99535.03
2022-11-16T22:02:27.596Z,99521.59
2022-11-16T22:05:12.624Z,99518.16
2022-11-16T22:07:41.155Z,99514.56
2022-11-16T22:10:10.152Z,99514.09
2022-11-16T22:12:37.443Z,99508.31
2022-11-16T22:15:05.971Z,99498.03
2022-11-16T22:17:33.298Z,99498.34
2022-11-16T22:19:59.773Z,99491.44
2022-11-16T22:22:26.424Z,99481.94
2022-11-16T22:24:53.081Z,99477.69
2022-11-16T22:27:19.742Z,99466.31
2022-11-16T22:29:46.270Z,99462.88
2022-11-16T22:32:12.814Z,99456.00
2022-11-16T22:34:39.407Z,99443.03
2022-11-16T22:37:05.957Z,99426.31
2022-11-16T22:39:32.556Z,99421.81
2022-11-16T22:41:59.023Z,99418.34
2022-11-16T22:44:25.508Z,99404.59
2022-11-16T22:46:52.693Z,99412.56
2022-11-16T22:49:19.655Z,99399.63
2022-11-16T22:51:46.451Z,99401.47
2022-11-16T22:54:13.523Z,99389.00
2022-11-16T22:56:40.060Z,99382.44
2022-11-16T22:59:06.827Z,99372.59
2022-11-16T23:01:33.558Z,99366.84
2022-11-16T23:04:00.270Z,99353.88
2022-11-16T23:06:27.304Z,99350.75
2022-11-16T23:08:54.119Z,99346.53
2022-11-16T23:11:43.471Z,99327.81
2022-11-16T23:14:31.131Z,99315.63
2022-11-16T23:16:58.077Z,99314.06
2022-11-16T23:19:44.274Z,99315.16
2022-11-16T23:22:37.394Z,99307.84
2022-11-16T23:25:24.073Z,99303.59
2022-11-16T23:28:05.630Z,99297.84
2022-11-16T23:30:32.827Z,99292.06
2022-11-16T23:32:59.445Z,99298.47
2022-11-16T23:35:25.998Z,99285.84
2022-11-16T23:38:01.098Z,99274.44
2022-11-16T23:40:30.503Z,99272.44
2022-11-16T23:43:16.555Z,99260.25
2022-11-16T23:45:43.717Z,99251.06
2022-11-16T23:48:12.092Z,99222.16
2022-11-16T23:50:38.731Z,99222.16
2022-11-16T23:53:06.845Z,99208.44
2022-11-16T23:55:34.782Z,99189.41
2022-11-16T23:58:01.595Z,99175.97
